Time;durP1;ratioP1;P1;durP2;ratioP2;P2;SDS_P1;SDS_P2;PMS_P1;PMS_P2;Temp;Humidity;BMP_temperature;BMP_pressure;BME280_temperature;BME280_humidity;BME280_pressure;Samples;Min_cycle;Max_cycle;Signal;HPM_P1;HPM_P2
2022/02/21 00:00:55;;;;;;;;;4.00;0.25;;;;;11.14;64.48;100449.59;5062816;28;45259;-55
2022/02/21 00:03:22;;;;;;;;;12.50;6.50;;;;;11.11;64.43;100499.66;5062658;28;45272;-55
2022/02/21 00:05:51;;;;;;;;;5.50;4.00;;;;;11.09;63.88;100459.38;5062866;28;45231;-55
2022/02/21 00:08:17;;;;;;;;;9.50;4.25;;;;;11.05;63.63;100454.16;5062286;28;45349;-55
2022/02/21 00:10:43;;;;;;;;;10.00;5.00;;;;;10.97;62.75;100490.28;5062477;28;45468;-55
2022/02/21 00:13:08;;;;;;;;;5.75;3.50;;;;;10.92;62.17;100507.00;5062648;28;45167;-53
2022/02/21 00:15:34;;;;;;;;;2.50;1.00;;;;;10.85;61.54;100493.97;5062967;28;45437;-55
2022/02/21 00:18:01;;;;;;;;;5.00;3.25;;;;;10.81;61.39;100513.34;5062606;28;45291;-54
2022/02/21 00:20:27;;;;;;;;;8.25;4.00;;;;;10.71;60.97;100491.63;5062303;28;46180;-55
2022/02/21 00:22:52;;;;;;;;;5.00;2.00;;;;;10.69;60.70;100516.19;5062392;28;45340;-53
2022/02/21 00:25:18;;;;;;;;;8.25;4.50;;;;;10.65;60.19;100494.34;5061166;28;45460;-55
2022/02/21 00:27:43;;;;;;;;;5.00;4.50;;;;;10.57;59.91;100512.03;5062384;28;45467;-55
2022/02/21 00:30:09;;;;;;;;;4.00;2.00;;;;;10.56;59.79;100500.69;5062265;28;46047;-55
2022/02/21 00:32:35;;;;;;;;;4.00;2.75;;;;;10.54;59.33;100538.34;5062238;28;45399;-54
2022/02/21 00:35:01;;;;;;;;;4.75;2.25;;;;;10.43;59.01;100514.91;5061108;28;45330;-55
2022/02/21 00:37:26;;;;;;;;;3.75;2.25;;;;;10.42;59.27;100534.19;5061956;28;45494;-55
2022/02/21 00:39:52;;;;;;;;;5.00;2.50;;;;;10.38;58.59;100543.88;5061885;28;46117;-55
2022/02/21 00:42:21;;;;;;;;;7.25;2.50;;;;;10.39;58.29;100545.63;5062050;28;45425;-55
2022/02/21 00:44:48;;;;;;;;;6.25;3.75;;;;;10.39;58.53;100556.13;5062235;28;45292;-56
2022/02/21 00:47:14;;;;;;;;;3.25;3.25;;;;;10.35;58.04;100543.91;5062066;28;45421;-55
2022/02/21 00:49:39;;;;;;;;;7.00;2.00;;;;;10.36;58.13;100564.06;5043704;28;47076;-55
2022/02/21 00:52:05;;;;;;;;;5.25;2.00;;;;;10.34;57.87;100565.81;5061936;28;45342;-55
2022/02/21 00:54:30;;;;;;;;;3.75;2.25;;;;;10.29;58.12;100561.50;5062277;28;45355;-53
2022/02/21 00:56:56;;;;;;;;;6.25;4.00;;;;;10.29;57.78;100561.50;5062089;28;45648;-55
2022/02/21 00:59:21;;;;;;;;;11.25;4.25;;;;;10.25;57.53;100560.69;5061860;28;45349;-54
2022/02/21 01:01:46;;;;;;;;;7.75;3.75;;;;;10.21;57.52;100565.16;5061853;28;45363;-55
2022/02/21 01:04:12;;;;;;;;;7.25;4.00;;;;;10.21;57.56;100567.78;5062078;28;45239;-55
2022/02/21 01:06:37;;;;;;;;;6.25;2.75;;;;;10.21;57.47;100572.13;5061416;28;45584;-55
2022/02/21 01:09:03;;;;;;;;;7.00;3.00;;;;;10.21;57.52;100598.41;5061597;28;45402;-51
2022/02/21 01:11:30;;;;;;;;;4.50;2.25;;;;;10.21;57.32;100608.91;5061652;28;45413;-54
2022/02/21 01:13:56;;;;;;;;;6.75;2.75;;;;;10.22;57.28;100634.28;5061933;28;45312;-53
2022/02/21 01:16:24;;;;;;;;;6.75;3.00;;;;;10.20;57.52;100680.69;5061505;28;45209;-55
2022/02/21 01:18:50;;;;;;;;;4.25;1.50;;;;;10.15;58.10;100701.78;5061557;28;47062;-55
2022/02/21 01:21:15;;;;;;;;;2.00;1.75;;;;;10.04;58.50;100688.78;5061468;28;45372;-52
2022/02/21 01:23:41;;;;;;;;;3.00;1.25;;;;;9.96;58.59;100667.03;5061578;28;45287;-54
2022/02/21 01:26:06;;;;;;;;;1.75;0.75;;;;;9.86;58.72;100645.28;5061427;28;45326;-54
2022/02/21 01:28:31;;;;;;;;;0.00;0.00;;;;;9.78;58.67;100648.88;5061445;28;45225;-54
2022/02/21 01:30:57;;;;;;;;;2.25;1.00;;;;;9.67;58.33;100662.13;5061394;28;45391;-53
2022/02/21 01:33:22;;;;;;;;;2.50;1.75;;;;;9.56;58.77;100644.75;5061560;28;45351;-54
2022/02/21 01:35:48;;;;;;;;;1.50;0.00;;;;;9.43;58.72;100649.28;5061294;28;45477;-54
2022/02/21 01:38:13;;;;;;;;;1.00;1.00;;;;;9.38;58.25;100665.94;5061090;28;45339;-53
2022/02/21 01:40:39;;;;;;;;;4.50;1.00;;;;;9.28;58.50;100659.91;5059699;28;45362;-53
2022/02/21 01:43:04;;;;;;;;;4.50;2.00;;;;;9.20;58.42;100651.25;5061401;28;45497;-53
2022/02/21 01:45:29;;;;;;;;;0.50;0.00;;;;;9.15;58.43;100660.94;5061162;28;45497;-53
2022/02/21 01:47:55;;;;;;;;;4.50;2.00;;;;;9.04;58.61;100661.00;5061105;28;46121;-53
2022/02/21 01:50:20;;;;;;;;;3.00;1.00;;;;;8.98;58.36;100677.69;5061055;28;45321;-53
2022/02/21 01:52:47;;;;;;;;;2.00;1.75;;;;;8.92;58.44;100698.69;5059866;28;45364;-54
2022/02/21 01:55:12;;;;;;;;;5.25;0.50;;;;;8.87;58.46;100718.84;5060916;28;45435;-53
2022/02/21 01:57:41;;;;;;;;;4.00;1.00;;;;;8.82;58.81;100736.31;5059721;28;45302;-52
2022/02/21 02:00:08;;;;;;;;;6.00;0.00;;;;;8.80;58.40;100689.16;5060977;28;45287;-53
2022/02/21 02:02:33;;;;;;;;;3.50;0.75;;;;;8.81;58.66;100685.66;5061005;28;45248;-52
2022/02/21 02:04:58;;;;;;;;;0.00;0.00;;;;;8.80;58.82;100673.44;5061140;28;45382;-51
2022/02/21 02:07:24;;;;;;;;;0.00;0.00;;;;;8.74;58.64;100663.91;5060471;28;45239;-53
2022/02/21 02:09:49;;;;;;;;;3.50;1.00;;;;;8.72;58.74;100686.59;5060737;28;45259;-53
2022/02/21 02:12:15;;;;;;;;;1.00;1.00;;;;;8.68;58.74;100677.03;5061066;28;45315;-53
2022/02/21 02:14:42;;;;;;;;;1.50;0.50;;;;;8.65;58.93;100679.66;5060806;28;45240;-51
2022/02/21 02:17:09;;;;;;;;;3.75;1.00;;;;;8.61;58.91;100678.81;5060015;28;46476;-53
2022/02/21 02:19:35;;;;;;;;;3.50;2.00;;;;;8.57;58.62;100676.25;5060579;28;45399;-53
2022/02/21 02:22:13;;;;;;;;;6.75;3.50;;;;;8.56;58.66;100677.97;5060448;28;45256;-53
2022/02/21 02:24:41;;;;;;;;;4.50;3.00;;;;;8.54;58.75;100676.25;5060585;28;45514;-53
2022/02/21 02:27:10;;;;;;;;;5.25;3.00;;;;;8.51;58.72;100668.44;5060327;28;45218;-51
2022/02/21 02:29:39;;;;;;;;;9.00;4.00;;;;;8.47;58.97;100669.34;5060411;28;45315;-51
2022/02/21 02:32:07;;;;;;;;;5.50;3.00;;;;;8.43;58.74;100666.69;5060530;28;45250;-51
2022/02/21 02:34:33;;;;;;;;;6.75;2.00;;;;;8.38;58.79;100673.72;5060469;28;45165;-52
2022/02/21 02:36:58;;;;;;;;;7.25;4.25;;;;;8.38;58.64;100671.09;5060058;28;46571;-52
2022/02/21 02:39:25;;;;;;;;;7.50;3.00;;;;;8.36;58.87;100672.84;5060205;28;45387;-51
2022/02/21 02:41:51;;;;;;;;;2.50;2.00;;;;;8.35;58.51;100673.75;5060373;28;45267;-52
2022/02/21 02:44:17;;;;;;;;;5.00;4.00;;;;;8.32;58.66;100665.03;5060254;28;45464;-52
2022/02/21 02:46:42;;;;;;;;;4.75;3.00;;;;;8.31;58.83;100669.38;5060104;28;45965;-52
2022/02/21 02:49:08;;;;;;;;;2.00;2.00;;;;;8.30;58.56;100667.63;5060299;28;45240;-51
2022/02/21 02:51:33;;;;;;;;;3.25;3.25;;;;;8.32;58.46;100662.41;5060053;28;45742;-53
2022/02/21 02:53:59;;;;;;;;;3.00;2.00;;;;;8.31;58.27;100669.38;5060266;28;45166;-50
2022/02/21 02:56:24;;;;;;;;;4.75;1.75;;;;;8.30;58.36;100672.88;5060204;28;45358;-52
2022/02/21 02:58:49;;;;;;;;;8.75;4.50;;;;;8.28;58.32;100664.19;5060045;28;45305;-53
2022/02/21 03:01:16;;;;;;;;;5.00;4.00;;;;;8.29;58.37;100679.00;5060178;28;45184;-52
2022/02/21 03:03:41;;;;;;;;;5.25;5.25;;;;;8.29;58.06;100682.50;5060173;28;45226;-50
2022/02/21 03:06:07;;;;;;;;;7.25;4.50;;;;;8.29;58.21;100687.72;5059872;28;45312;-51
2022/02/21 03:08:32;;;;;;;;;2.50;2.00;;;;;8.29;58.00;100684.25;5059591;28;45195;-52
2022/02/21 03:10:57;;;;;;;;;5.25;3.75;;;;;8.27;58.52;100676.38;5060005;28;45164;-53
2022/02/21 03:13:23;;;;;;;;;8.75;4.00;;;;;8.32;58.38;100684.22;5060129;28;45253;-58
2022/02/21 03:15:48;;;;;;;;;3.50;3.00;;;;;8.32;58.16;100671.13;5058558;28;47317;-50
2022/02/21 03:18:13;;;;;;;;;7.75;4.25;;;;;8.31;58.07;100666.75;5060096;28;45378;-50
2022/02/21 03:20:39;;;;;;;;;3.00;2.00;;;;;8.34;57.88;100658.91;5059909;28;45280;-49
2022/02/21 03:23:04;;;;;;;;;4.75;1.75;;;;;8.36;57.96;100653.66;5059678;28;45274;-50
2022/02/21 03:25:29;;;;;;;;;8.25;3.75;;;;;8.33;57.88;100643.19;5059604;28;45337;-50
2022/02/21 03:27:56;;;;;;;;;5.50;4.00;;;;;8.35;57.67;100659.75;5059848;28;45249;-52
2022/02/21 03:30:22;;;;;;;;;5.50;4.00;;;;;8.35;57.92;100652.78;5062541;28;45446;-51
2022/02/21 03:32:47;;;;;;;;;6.00;5.00;;;;;8.37;57.61;100669.34;5063301;28;45485;-52
2022/02/21 03:35:13;;;;;;;;;4.50;2.50;;;;;8.40;58.04;100671.06;5063232;28;46127;-51
2022/02/21 03:37:39;;;;;;;;;5.25;4.00;;;;;8.39;57.77;100675.47;5061695;28;45427;-52
2022/02/21 03:40:06;;;;;;;;;5.75;3.75;;;;;8.42;57.86;100674.56;5062904;28;45419;-48
2022/02/21 03:42:32;;;;;;;;;5.00;5.00;;;;;8.42;57.53;100677.19;5063259;28;45351;-53
2022/02/21 03:44:58;;;;;;;;;6.25;3.25;;;;;8.39;57.63;100670.22;5062825;28;45655;-52
2022/02/21 03:47:23;;;;;;;;;6.50;3.75;;;;;8.42;57.62;100675.41;5063117;28;45375;-52
2022/02/21 03:49:49;;;;;;;;;6.75;3.00;;;;;8.42;57.52;100677.19;5063016;28;45855;-51
2022/02/21 03:52:14;;;;;;;;;5.50;4.00;;;;;8.41;57.58;100691.16;5062897;28;45326;-52
2022/02/21 03:54:40;;;;;;;;;7.00;3.50;;;;;8.39;57.55;100685.94;5062693;28;47062;-51
2022/02/21 03:57:05;;;;;;;;;10.25;4.75;;;;;8.38;57.60;100680.72;5062961;28;45260;-47
2022/02/21 03:59:30;;;;;;;;;4.00;3.25;;;;;8.39;57.47;100678.06;5062878;28;45249;-52
2022/02/21 04:01:56;;;;;;;;;6.00;3.00;;;;;8.39;57.58;100688.53;5063001;28;45344;-50
2022/02/21 04:04:21;;;;;;;;;2.50;2.00;;;;;8.37;57.27;100678.97;5062852;28;45453;-48
2022/02/21 04:06:46;;;;;;;;;3.00;3.00;;;;;8.37;57.62;100700.78;5062527;28;45357;-51
2022/02/21 04:09:12;;;;;;;;;4.50;3.00;;;;;8.37;57.52;100687.69;5062744;28;45311;-49
2022/02/21 04:11:38;;;;;;;;;3.50;2.00;;;;;8.36;57.32;100690.31;5062753;28;45323;-50
2022/02/21 04:14:04;;;;;;;;;3.25;3.25;;;;;8.37;57.16;100695.53;5062495;28;45323;-52
2022/02/21 04:16:34;;;;;;;;;7.00;4.00;;;;;8.35;57.13;100709.50;5062734;28;45438;-52
2022/02/21 04:18:59;;;;;;;;;9.75;3.00;;;;;8.37;57.20;100700.78;5062549;28;45335;-51
2022/02/21 04:21:25;;;;;;;;;3.50;3.50;;;;;8.35;57.81;100702.53;5062529;28;45512;-49
2022/02/21 04:23:50;;;;;;;;;5.00;2.75;;;;;8.37;57.10;100702.53;5062079;28;46656;-53
2022/02/21 04:26:15;;;;;;;;;5.25;2.75;;;;;8.35;57.50;100691.19;5062637;28;45361;-50
2022/02/21 04:28:41;;;;;;;;;4.00;2.25;;;;;8.38;57.41;100686.81;5061400;28;45330;-50
2022/02/21 04:31:06;;;;;;;;;2.75;2.75;;;;;8.38;57.31;100699.91;5062644;28;45261;-52
2022/02/21 04:33:31;;;;;;;;;2.75;2.75;;;;;8.38;57.21;100694.66;5062127;28;45438;-47
2022/02/21 04:35:57;;;;;;;;;1.50;1.50;;;;;8.40;57.42;100678.94;5062459;28;45319;-50
2022/02/21 04:38:22;;;;;;;;;3.75;3.00;;;;;8.42;57.38;100692.91;5061962;28;45785;-52
2022/02/21 04:40:48;;;;;;;;;3.00;1.75;;;;;8.38;57.25;100686.81;5061578;28;45367;-48
2022/02/21 04:43:14;;;;;;;;;3.00;3.00;;;;;8.38;57.41;100697.28;5062154;28;47186;-51
2022/02/21 04:45:39;;;;;;;;;5.00;3.00;;;;;8.35;57.60;100684.22;5062433;28;45457;-51
2022/02/21 04:48:05;;;;;;;;;4.00;3.00;;;;;8.31;57.32;100692.94;5062041;28;45241;-52
2022/02/21 04:50:31;;;;;;;;;3.50;2.00;;;;;8.33;57.44;100687.69;5062232;28;45466;-52
2022/02/21 04:52:56;;;;;;;;;6.75;2.00;;;;;8.30;57.55;100688.59;5061633;28;45985;-50
2022/02/21 04:55:21;;;;;;;;;3.75;1.25;;;;;8.25;57.53;100693.88;5061978;28;45271;-52
2022/02/21 04:57:47;;;;;;;;;5.00;1.25;;;;;8.26;57.61;100695.59;5062205;28;45158;-49
2022/02/21 05:00:14;;;;;;;;;4.00;2.00;;;;;8.24;57.34;100691.25;5061950;28;45316;-48
2022/02/21 05:02:39;;;;;;;;;5.00;4.50;;;;;8.24;57.55;100683.41;5060425;28;46950;-50
2022/02/21 05:05:07;;;;;;;;;4.50;1.50;;;;;8.24;57.61;100673.78;5061818;28;45395;-50
2022/02/21 05:07:32;;;;;;;;;1.75;1.25;;;;;8.26;57.55;100671.16;5061660;28;45484;-51
2022/02/21 05:09:57;;;;;;;;;3.25;1.75;;;;;8.20;57.67;100684.28;5061642;28;45357;-49
2022/02/21 05:12:23;;;;;;;;;2.25;2.00;;;;;8.20;57.71;100684.28;5061791;28;45358;-52
2022/02/21 05:14:48;;;;;;;;;2.00;1.50;;;;;8.17;57.93;100681.69;5061771;28;45388;-52
2022/02/21 05:17:13;;;;;;;;;3.75;1.50;;;;;8.13;57.78;100681.69;5061892;28;45367;-50
2022/02/21 05:19:39;;;;;;;;;2.25;1.25;;;;;8.14;58.14;100687.81;5061591;28;45754;-51
2022/02/21 05:22:04;;;;;;;;;3.25;1.75;;;;;8.09;57.90;100700.06;5061415;28;46337;-52
2022/02/21 05:24:29;;;;;;;;;3.50;2.00;;;;;8.03;57.69;100690.47;5061295;28;45256;-51
2022/02/21 05:26:55;;;;;;;;;4.00;2.00;;;;;8.05;57.80;100693.97;5061754;28;45472;-52
2022/02/21 05:29:20;;;;;;;;;5.00;1.00;;;;;8.04;57.69;100697.44;5061271;28;45204;-52
2022/02/21 05:31:49;;;;;;;;;4.75;0.75;;;;;8.00;57.55;100687.88;5061399;28;45249;-51
2022/02/21 05:34:15;;;;;;;;;3.25;1.00;;;;;8.01;58.04;100686.13;5061371;28;45358;-48
2022/02/21 05:36:41;;;;;;;;;3.50;1.75;;;;;8.01;57.66;100699.22;5061129;28;45411;-49
2022/02/21 05:39:06;;;;;;;;;9.00;3.00;;;;;7.97;57.65;100687.88;5061502;28;45220;-51
2022/02/21 05:41:32;;;;;;;;;6.75;4.00;;;;;7.93;58.07;100715.81;5060995;28;46212;-49
2022/02/21 05:43:57;;;;;;;;;3.00;3.00;;;;;7.91;57.97;100696.63;5060037;28;45641;-50
2022/02/21 05:46:22;;;;;;;;;2.25;1.00;;;;;7.88;58.10;100690.53;5061370;28;45316;-50
2022/02/21 05:48:48;;;;;;;;;2.00;1.25;;;;;7.86;58.02;100687.06;5061172;28;45346;-51
2022/02/21 05:51:13;;;;;;;;;2.25;1.25;;;;;7.86;57.72;100685.31;5060367;28;46035;-52
2022/02/21 05:53:42;;;;;;;;;3.25;1.50;;;;;7.85;57.69;100690.53;5059120;28;45348;-46
2022/02/21 05:56:08;;;;;;;;;0.50;0.50;;;;;7.84;58.01;100686.22;5061179;28;45314;-48
2022/02/21 05:58:33;;;;;;;;;1.00;1.00;;;;;7.81;58.15;100677.47;5059548;28;45260;-47
2022/02/21 06:00:59;;;;;;;;;2.00;1.75;;;;;7.77;58.00;100686.22;5059397;28;45350;-50
2022/02/21 06:03:24;;;;;;;;;2.75;2.00;;;;;7.79;58.00;100697.53;5060901;28;45471;-48
2022/02/21 06:05:49;;;;;;;;;2.00;0.00;;;;;7.75;58.02;100687.97;5061079;28;45319;-50
2022/02/21 06:08:15;;;;;;;;;2.50;1.00;;;;;7.77;57.81;100701.03;5056554;28;45280;-48
2022/02/21 06:10:40;;;;;;;;;1.00;0.00;;;;;7.75;57.77;100693.19;5059499;28;45343;-51
2022/02/21 06:13:05;;;;;;;;;0.00;0.00;;;;;7.75;57.97;100703.66;5086175;27;45309;-51
2022/02/21 06:15:31;;;;;;;;;1.75;1.00;;;;;7.73;57.84;100715.00;5059265;28;45487;-52
2022/02/21 06:17:58;;;;;;;;;1.00;1.00;;;;;7.73;57.74;100721.09;5059570;28;45461;-49
2022/02/21 06:20:24;;;;;;;;;1.00;0.75;;;;;7.75;58.00;100742.06;5059266;28;46389;-48
2022/02/21 06:22:50;;;;;;;;;1.00;1.00;;;;;7.74;57.74;100740.31;5060179;28;45269;-50
2022/02/21 06:25:15;;;;;;;;;2.00;1.00;;;;;7.73;57.84;100722.84;5060630;28;45319;-48
2022/02/21 06:27:41;;;;;;;;;0.75;0.50;;;;;7.73;57.98;100736.78;5060516;28;45152;-51
2022/02/21 06:30:07;;;;;;;;;2.75;0.25;;;;;7.73;57.80;100725.47;5060468;28;46821;-51
2022/02/21 06:32:32;;;;;;;;;1.50;0.00;;;;;7.69;58.01;100736.81;5060425;28;45305;-49
2022/02/21 06:34:58;;;;;;;;;1.50;1.00;;;;;7.74;57.52;100738.53;5060663;28;45212;-49
2022/02/21 06:37:23;;;;;;;;;3.00;0.00;;;;;7.78;57.97;100731.56;5058865;28;45301;-51
2022/02/21 06:39:48;;;;;;;;;1.00;1.00;;;;;7.75;57.81;100737.66;5060157;28;45276;-47
2022/02/21 06:42:14;;;;;;;;;3.50;1.00;;;;;7.72;57.87;100732.47;5060293;28;45299;-49
2022/02/21 06:44:39;;;;;;;;;1.00;1.00;;;;;7.71;58.01;100733.34;5059311;28;45255;-51
2022/02/21 06:47:05;;;;;;;;;0.75;0.00;;;;;7.71;57.98;100741.19;5060358;28;45593;-52
2022/02/21 06:49:30;;;;;;;;;1.50;1.25;;;;;7.70;58.11;100747.28;5060193;28;45303;-48
2022/02/21 06:51:56;;;;;;;;;1.25;0.75;;;;;7.69;58.02;100745.53;5060137;28;45379;-49
2022/02/21 06:54:22;;;;;;;;;4.75;2.25;;;;;7.69;58.21;100763.84;5058997;28;45274;-48
2022/02/21 06:56:48;;;;;;;;;1.75;1.25;;;;;7.72;57.97;100747.28;5060409;28;45478;-50
2022/02/21 06:59:13;;;;;;;;;1.50;0.50;;;;;7.69;57.93;100753.38;5060035;28;45462;-50
2022/02/21 07:01:39;;;;;;;;;1.50;0.25;;;;;7.72;57.91;100745.53;5060109;28;45299;-51
2022/02/21 07:04:04;;;;;;;;;2.50;2.00;;;;;7.71;58.10;100762.09;5060126;28;45651;-51
2022/02/21 07:06:31;;;;;;;;;1.00;1.00;;;;;7.69;58.04;100758.59;5059723;28;45139;-50
2022/02/21 07:08:56;;;;;;;;;3.25;2.50;;;;;7.69;58.17;100779.53;5059616;28;47027;-51
2022/02/21 07:11:22;;;;;;;;;4.00;3.00;;;;;7.72;58.17;100783.88;5059825;28;45228;-52
2022/02/21 07:13:47;;;;;;;;;0.50;0.00;;;;;7.73;57.95;100794.34;5060088;28;45250;-49
2022/02/21 07:16:12;;;;;;;;;2.00;1.00;;;;;7.72;58.20;100792.63;5059871;28;45545;-48
2022/02/21 07:18:38;;;;;;;;;4.00;2.00;;;;;7.71;57.89;100795.22;5059807;28;45486;-47
2022/02/21 07:21:04;;;;;;;;;5.00;2.00;;;;;7.75;58.18;100781.28;5059759;28;45303;-49
2022/02/21 07:23:35;;;;;;;;;4.00;1.25;;;;;7.75;58.07;100791.75;5059763;28;45326;-48
2022/02/21 07:26:01;;;;;;;;;2.25;0.00;;;;;7.76;58.23;100799.59;5059511;28;45546;-52
2022/02/21 07:28:26;;;;;;;;;4.25;1.75;;;;;7.74;58.17;100800.47;5058345;28;47092;-51
2022/02/21 07:30:52;;;;;;;;;3.00;1.50;;;;;7.75;58.28;100802.22;5059585;28;45205;-51
2022/02/21 07:33:17;;;;;;;;;4.25;4.25;;;;;7.76;58.03;100796.97;5059983;28;45495;-48
2022/02/21 07:35:43;;;;;;;;;2.50;2.00;;;;;7.75;57.87;100800.47;5059837;28;45263;-50
2022/02/21 07:38:08;;;;;;;;;5.25;4.25;;;;;7.72;58.04;100795.25;5059281;28;45302;-51
2022/02/21 07:40:33;;;;;;;;;2.00;0.00;;;;;7.71;58.18;100798.72;5058146;28;45202;-51
2022/02/21 07:42:59;;;;;;;;;3.25;1.75;;;;;7.71;58.00;100798.72;5058472;28;45423;-51
2022/02/21 07:45:26;;;;;;;;;2.00;1.00;;;;;7.73;57.90;100803.94;5059441;28;45412;-51
2022/02/21 07:47:55;;;;;;;;;3.75;2.75;;;;;7.71;58.15;100798.72;5059509;28;47369;-51
2022/02/21 07:50:22;;;;;;;;;2.00;2.00;;;;;7.75;57.95;100797.00;5059219;28;45260;-51
2022/02/21 07:52:48;;;;;;;;;4.00;2.25;;;;;7.75;58.11;100786.53;5059337;28;45266;-47
2022/02/21 07:55:15;;;;;;;;;4.50;1.75;;;;;7.71;58.17;100790.00;5059165;28;45347;-51
2022/02/21 07:57:42;;;;;;;;;8.50;2.75;;;;;7.74;58.16;100783.00;5059125;28;45450;-50
2022/02/21 08:00:10;;;;;;;;;2.25;1.25;;;;;7.70;58.12;100798.72;5059064;28;45249;-50
2022/02/21 08:02:36;;;;;;;;;4.00;3.00;;;;;7.72;58.13;100792.63;5059443;28;45289;-49
2022/02/21 08:05:02;;;;;;;;;5.00;2.00;;;;;7.75;58.08;100803.06;5059219;28;45170;-51
2022/02/21 08:07:27;;;;;;;;;4.00;2.75;;;;;7.76;58.14;100812.66;5058723;28;46446;-51
2022/02/21 08:09:53;;;;;;;;;3.75;1.25;;;;;7.80;57.90;100817.00;5058852;28;45244;-50
2022/02/21 08:12:18;;;;;;;;;3.75;2.50;;;;;7.83;58.16;100820.50;5059502;28;45236;-50
2022/02/21 08:14:43;;;;;;;;;2.25;1.00;;;;;7.83;58.38;100816.13;5059468;28;45195;-47
2022/02/21 08:17:09;;;;;;;;;5.00;3.00;;;;;7.91;58.32;100813.50;5062730;28;45434;-51
2022/02/21 08:19:34;;;;;;;;;4.75;2.00;;;;;7.91;58.35;100810.88;5062302;28;45273;-48
2022/02/21 08:21:59;;;;;;;;;5.00;1.00;;;;;7.94;58.32;100811.75;5062571;28;45245;-49
2022/02/21 08:24:25;;;;;;;;;3.50;2.00;;;;;7.98;58.19;100831.81;5062347;28;45581;-49
2022/02/21 08:26:50;;;;;;;;;9.50;4.00;;;;;8.01;58.31;100823.06;5061084;28;46919;-48
2022/02/21 08:29:15;;;;;;;;;4.75;2.00;;;;;8.04;58.22;100825.69;5062306;28;45515;-49
2022/02/21 08:31:43;;;;;;;;;2.00;1.00;;;;;8.02;58.41;100826.56;5062410;28;45322;-51
2022/02/21 08:34:09;;;;;;;;;5.50;3.00;;;;;8.05;58.45;100821.31;5061011;28;46449;-50
2022/02/21 08:36:34;;;;;;;;;4.00;3.00;;;;;8.07;58.30;100824.81;5061868;28;45251;-48
2022/02/21 08:39:00;;;;;;;;;4.00;2.75;;;;;8.14;58.20;100818.69;5061913;28;45300;-50
2022/02/21 08:41:25;;;;;;;;;4.00;4.00;;;;;8.17;58.47;100828.28;5062264;28;45402;-52
2022/02/21 08:43:51;;;;;;;;;6.00;3.00;;;;;8.19;58.31;100821.28;5062104;28;45228;-50
2022/02/21 08:46:16;;;;;;;;;2.25;2.00;;;;;8.20;58.34;100815.19;5060845;28;45347;-50
2022/02/21 08:48:41;;;;;;;;;3.75;2.00;;;;;8.22;58.54;100818.66;5061913;28;45255;-48
2022/02/21 08:51:07;;;;;;;;;5.75;1.00;;;;;8.27;58.31;100825.63;5062282;28;45287;-51
2022/02/21 08:53:33;;;;;;;;;6.00;3.00;;;;;8.31;58.13;100823.88;5061682;28;45595;-49
2022/02/21 08:55:59;;;;;;;;;4.00;2.50;;;;;8.34;58.27;100847.44;5061820;28;46102;-50
2022/02/21 08:58:24;;;;;;;;;3.00;3.00;;;;;8.37;58.27;100825.59;5061758;28;45304;-49
2022/02/21 09:00:50;;;;;;;;;4.75;2.00;;;;;8.37;58.53;100862.28;5061927;28;45291;-47
2022/02/21 09:03:15;;;;;;;;;3.25;3.00;;;;;8.38;58.09;100836.06;5060600;28;45383;-47
2022/02/21 09:05:40;;;;;;;;;4.50;3.50;;;;;8.42;58.46;100829.06;5061837;28;45375;-53
2022/02/21 09:08:06;;;;;;;;;3.50;2.50;;;;;8.47;58.40;100835.19;5061415;28;45510;-50
2022/02/21 09:10:32;;;;;;;;;1.25;1.25;;;;;8.50;58.06;100829.94;5061798;28;45327;-49
2022/02/21 09:12:58;;;;;;;;;4.75;2.25;;;;;8.58;57.91;100836.03;5060262;28;45340;-47
2022/02/21 09:15:24;;;;;;;;;1.75;1.75;;;;;8.62;57.97;100829.03;5061638;28;46974;-47
2022/02/21 09:17:50;;;;;;;;;2.00;2.00;;;;;8.65;58.12;100815.03;5061318;28;45328;-47
2022/02/21 09:20:16;;;;;;;;;6.00;2.00;;;;;8.70;58.17;100824.59;5061788;28;45406;-48
2022/02/21 09:22:42;;;;;;;;;4.50;2.25;;;;;8.75;57.99;100828.09;5061189;28;45167;-47
2022/02/21 09:25:09;;;;;;;;;1.25;1.00;;;;;8.82;58.04;100817.56;5061627;28;46503;-49
2022/02/21 09:27:35;;;;;;;;;9.00;2.00;;;;;8.89;58.13;100824.50;5061156;28;45295;-52
2022/02/21 09:30:02;;;;;;;;;6.25;3.00;;;;;8.96;57.79;100817.50;5061518;28;45272;-46
2022/02/21 09:32:29;;;;;;;;;4.75;2.25;;;;;9.00;57.96;100809.59;5059879;28;45451;-50
2022/02/21 09:34:55;;;;;;;;;6.00;3.75;;;;;9.06;57.69;100813.94;5060110;28;45413;-46
2022/02/21 09:37:20;;;;;;;;;11.00;3.00;;;;;9.13;57.82;100812.13;5060703;28;45686;-48
2022/02/21 09:39:46;;;;;;;;;4.00;1.00;;;;;9.16;57.62;100789.38;5061276;28;45232;-54
2022/02/21 09:42:11;;;;;;;;;2.00;2.00;;;;;9.22;57.87;100791.06;5061133;28;45226;-49
2022/02/21 09:44:37;;;;;;;;;3.00;2.50;;;;;9.26;57.74;100791.03;5061169;28;45263;-52
2022/02/21 09:47:05;;;;;;;;;5.25;2.25;;;;;9.29;57.67;100795.38;5060947;28;45277;-48
2022/02/21 09:49:30;;;;;;;;;6.75;5.25;;;;;9.32;57.59;100823.34;5061292;28;45393;-51
2022/02/21 09:51:56;;;;;;;;;6.00;2.50;;;;;9.36;57.39;100791.84;5060620;28;45269;-50
2022/02/21 09:54:23;;;;;;;;;4.75;3.50;;;;;9.46;57.29;100810.13;5061141;28;45367;-50
2022/02/21 09:56:48;;;;;;;;;4.75;4.75;;;;;9.50;57.27;100827.59;5060864;28;45280;-49
2022/02/21 09:59:14;;;;;;;;;6.50;2.75;;;;;9.56;57.22;100809.19;5060936;28;45366;-49
2022/02/21 10:01:43;;;;;;;;;6.00;2.50;;;;;9.62;57.42;100801.22;5060751;28;45605;-50
2022/02/21 10:04:12;;;;;;;;;2.75;2.00;;;;;9.65;57.49;100816.06;5059451;28;47286;-51
2022/02/21 10:06:38;;;;;;;;;5.25;1.75;;;;;9.68;57.15;100816.06;5060315;28;45316;-48
2022/02/21 10:09:08;;;;;;;;;1.25;0.50;;;;;9.71;57.30;100801.16;5060879;28;45313;-48
2022/02/21 10:11:36;;;;;;;;;2.00;2.00;;;;;9.78;57.13;100814.22;5060867;28;45533;-48
2022/02/21 10:14:09;;;;;;;;;1.25;1.25;;;;;9.82;57.00;100814.16;5059467;28;46864;-47
2022/02/21 10:16:46;;;;;;;;;4.00;2.50;;;;;9.85;56.77;100818.50;5060520;28;45296;-49
2022/02/21 10:19:22;;;;;;;;;9.75;7.00;;;;;9.89;56.87;100805.34;5060582;28;45257;-48
2022/02/21 10:22:10;;;;;;;;;3.00;0.50;;;;;9.94;56.86;100797.44;5059109;28;45404;-47
2022/02/21 10:24:40;;;;;;;;;5.50;5.50;;;;;9.99;56.66;100808.75;5060459;28;47160;-48
2022/02/21 10:27:14;;;;;;;;;4.50;2.75;;;;;10.07;56.77;100812.16;5060319;28;45366;-47
2022/02/21 10:29:54;;;;;;;;;5.00;1.50;;;;;10.12;56.58;100787.59;5060725;28;45341;-51
2022/02/21 10:32:28;;;;;;;;;2.50;1.50;;;;;10.16;56.91;100810.31;5060407;28;45309;-50
2022/02/21 10:34:54;;;;;;;;;5.50;3.00;;;;;10.19;56.41;100836.56;5060270;28;45445;-51
2022/02/21 10:37:22;;;;;;;;;4.00;1.50;;;;;10.26;56.48;100819.81;5059690;28;45202;-52
2022/02/21 10:39:48;;;;;;;;;4.00;2.00;;;;;10.29;56.48;100811.03;5060060;28;45300;-52
2022/02/21 10:42:24;;;;;;;;;4.50;3.50;;;;;10.43;56.19;100824.91;5060101;28;45242;-50
2022/02/21 10:44:49;;;;;;;;;5.50;3.00;;;;;10.47;56.67;100820.50;5060332;28;46465;-50
2022/02/21 10:47:17;;;;;;;;;7.50;4.75;;;;;10.54;56.36;100793.22;5060215;28;45394;-50
2022/02/21 10:49:44;;;;;;;;;3.00;2.00;;;;;10.60;56.13;100824.69;5060143;28;45334;-52
2022/02/21 10:52:19;;;;;;;;;3.50;2.50;;;;;10.68;56.12;100822.84;5060009;28;45216;-50
2022/02/21 10:54:45;;;;;;;;;5.00;4.00;;;;;10.76;55.81;100799.06;5059695;28;45366;-49
2022/02/21 10:57:12;;;;;;;;;9.50;3.00;;;;;10.89;56.04;100807.66;5060283;28;45213;-52
2022/02/21 10:59:38;;;;;;;;;5.00;3.25;;;;;10.98;55.95;100806.66;5060000;28;45475;-51
2022/02/21 11:02:07;;;;;;;;;3.75;1.75;;;;;11.11;55.65;100820.50;5058875;28;45372;-47
2022/02/21 11:04:36;;;;;;;;;5.00;3.00;;;;;11.20;55.48;100818.56;5058543;28;48146;-51
2022/02/21 11:07:02;;;;;;;;;6.50;3.25;;;;;11.27;55.61;100806.22;5059795;28;45299;-52
2022/02/21 11:09:29;;;;;;;;;4.75;3.00;;;;;11.37;55.68;100815.69;5058349;28;45369;-50
2022/02/21 11:11:58;;;;;;;;;3.75;2.25;;;;;11.49;55.36;100813.75;5060154;28;45342;-48
2022/02/21 11:14:26;;;;;;;;;5.00;2.25;;;;;11.54;55.47;100809.28;5059611;28;47007;-50
2022/02/21 11:16:54;;;;;;;;;6.50;3.00;;;;;11.64;55.40;100800.31;5058671;28;45288;-48
2022/02/21 11:19:20;;;;;;;;;5.25;4.00;;;;;11.73;55.03;100814.22;5058279;28;45375;-50
2022/02/21 11:21:47;;;;;;;;;4.25;2.00;;;;;11.81;55.10;100815.81;5058421;28;45366;-50
2022/02/21 11:24:20;;;;;;;;;7.50;3.50;;;;;11.89;55.17;100818.31;5059532;28;46226;-48
2022/02/21 11:27:02;;;;;;;;;9.25;6.00;;;;;11.91;55.58;100803.38;5059797;28;45371;-52